createdAt,value
2019-04-25T00:02:32.493Z,101330.93
2019-04-25T00:05:04.685Z,101323.91
2019-04-25T00:07:37.080Z,101330.43
2019-04-25T00:10:08.719Z,101329.96
2019-04-25T00:12:39.615Z,101334.31
2019-04-25T00:15:11.181Z,101332.22
2019-04-25T00:17:44.405Z,101324.57
2019-04-25T00:20:16.307Z,101324.95
2019-04-25T00:23:04.203Z,101327.52
2019-04-25T00:25:53.159Z,101326.31
2019-04-25T00:28:24.121Z,101322.00
2019-04-25T00:30:55.115Z,101326.52
2019-04-25T00:33:26.005Z,101318.89
2019-04-25T00:35:57.914Z,101328.95
2019-04-25T00:38:28.805Z,101332.45
2019-04-25T00:40:59.721Z,101325.08
2019-04-25T00:43:31.458Z,101333.41
2019-04-25T00:46:02.593Z,101335.98
2019-04-25T00:48:33.553Z,101337.75
2019-04-25T00:51:05.400Z,101330.93
2019-04-25T00:53:36.293Z,101333.47
2019-04-25T00:56:07.212Z,101335.88
2019-04-25T00:58:48.910Z,101335.23
2019-04-25T01:01:31.688Z,101337.43
2019-04-25T01:04:02.791Z,101331.63
2019-04-25T01:06:33.761Z,101334.77
2019-04-25T01:09:08.690Z,101334.86
2019-04-25T01:11:40.373Z,101336.36
2019-04-25T01:14:11.954Z,101336.97
2019-04-25T01:16:42.968Z,101339.97
2019-04-25T01:19:13.863Z,101342.13
2019-04-25T01:21:45.547Z,101339.84
2019-04-25T01:24:16.989Z,101344.42
2019-04-25T01:26:47.911Z,101340.64
2019-04-25T01:29:18.799Z,101343.52
2019-04-25T01:31:50.091Z,101344.25
2019-04-25T01:34:23.815Z,101342.56
2019-04-25T01:37:14.111Z,101342.05
2019-04-25T01:39:49.721Z,101342.05
2019-04-25T01:42:28.469Z,101341.91
2019-04-25T01:44:59.442Z,101339.06
2019-04-25T01:47:30.431Z,101333.32
2019-04-25T01:50:01.398Z,101342.70
2019-04-25T01:52:33.478Z,101339.67
2019-04-25T01:55:07.487Z,101335.69
2019-04-25T01:57:38.399Z,101336.02
2019-04-25T02:00:11.138Z,101331.42
2019-04-25T02:02:43.518Z,101335.75
2019-04-25T02:05:14.552Z,101329.38
2019-04-25T02:07:45.572Z,101331.06
2019-04-25T02:10:16.747Z,101330.12
2019-04-25T02:12:58.279Z,101331.67
2019-04-25T02:15:30.742Z,101328.71
2019-04-25T02:18:03.640Z,101325.94
2019-04-25T02:20:34.429Z,101323.83
2019-04-25T02:23:06.452Z,101326.30
2019-04-25T02:25:37.349Z,101326.30
2019-04-25T02:28:08.278Z,101330.12
2019-04-25T02:30:39.248Z,101326.88
2019-04-25T02:33:10.177Z,101318.63
2019-04-25T02:35:44.020Z,101325.86
2019-04-25T02:38:14.643Z,101320.42
2019-04-25T02:40:46.332Z,101325.19
2019-04-25T02:43:17.246Z,101326.09
2019-04-25T02:46:08.241Z,101325.42
2019-04-25T02:48:59.565Z,101333.00
2019-04-25T02:51:31.332Z,101321.24
2019-04-25T02:54:07.531Z,101321.66
2019-04-25T02:56:38.797Z,101326.31
2019-04-25T02:59:09.486Z,101322.16
2019-04-25T03:01:40.507Z,101321.41
2019-04-25T03:04:11.616Z,101319.14
2019-04-25T03:06:44.882Z,101314.91
2019-04-25T03:09:15.662Z,101316.23
2019-04-25T03:11:47.728Z,101318.70
2019-04-25T03:14:18.854Z,101322.81
2019-04-25T03:16:49.834Z,101323.66
2019-04-25T03:19:34.050Z,101323.10
2019-04-25T03:22:10.085Z,101325.38
2019-04-25T03:24:41.060Z,101327.51
2019-04-25T03:27:11.961Z,101320.30
2019-04-25T03:29:44.220Z,101326.45
2019-04-25T03:32:19.563Z,101329.05
2019-04-25T03:34:48.178Z,101326.75
2019-04-25T03:37:19.076Z,101324.11
2019-04-25T03:39:50.202Z,101325.08
2019-04-25T03:42:21.110Z,101323.07
2019-04-25T03:44:53.693Z,101321.09
2019-04-25T03:47:24.734Z,101327.62
2019-04-25T03:49:55.672Z,101323.83
2019-04-25T03:52:26.567Z,101329.06
2019-04-25T03:54:57.506Z,101324.33
2019-04-25T03:57:28.407Z,101331.89
2019-04-25T03:59:59.335Z,101335.22
2019-04-25T04:02:30.239Z,101333.22
2019-04-25T04:05:01.170Z,101329.23
2019-04-25T04:07:33.620Z,101327.16
2019-04-25T04:10:07.988Z,101330.84
2019-04-25T04:12:38.875Z,101331.13
2019-04-25T04:15:10.422Z,101331.98
2019-04-25T04:17:59.091Z,101330.09
2019-04-25T04:20:34.650Z,101334.53
2019-04-25T04:23:23.120Z,101326.97
2019-04-25T04:25:55.226Z,101330.85
2019-04-25T04:28:26.116Z,101329.63
2019-04-25T04:30:57.056Z,101326.02
2019-04-25T04:33:32.376Z,101332.07
2019-04-25T04:36:03.767Z,101330.56
2019-04-25T04:38:34.985Z,101331.31
2019-04-25T04:41:05.955Z,101334.50
2019-04-25T04:43:36.845Z,101335.23
2019-04-25T04:46:08.646Z,101332.18
2019-04-25T04:48:39.581Z,101341.01
2019-04-25T04:51:10.616Z,101333.41
2019-04-25T04:53:41.495Z,101330.67
2019-04-25T04:56:15.086Z,101339.88
2019-04-25T04:58:46.669Z,101337.83
2019-04-25T05:01:19.261Z,101327.82
2019-04-25T05:03:54.505Z,101334.93
2019-04-25T05:06:27.084Z,101331.89
2019-04-25T05:08:59.638Z,101334.08
2019-04-25T05:11:31.384Z,101332.77
2019-04-25T05:14:04.031Z,101331.54
2019-04-25T05:16:35.010Z,101333.91
2019-04-25T05:19:05.944Z,101335.64
2019-04-25T05:21:36.907Z,101331.72
2019-04-25T05:24:07.808Z,101327.48
2019-04-25T05:26:39.591Z,101331.48
2019-04-25T05:29:10.352Z,101340.33
2019-04-25T05:31:45.896Z,101330.76
2019-04-25T05:34:18.139Z,101321.86
2019-04-25T05:36:49.215Z,101322.00
2019-04-25T05:39:20.404Z,101309.67
2019-04-25T05:42:07.607Z,101305.06
2019-04-25T05:44:37.833Z,101296.27
2019-04-25T05:47:08.765Z,101306.23
2019-04-25T05:49:39.663Z,101311.87
2019-04-25T05:52:10.606Z,101304.91
2019-04-25T05:54:41.525Z,101296.08
2019-04-25T05:57:13.765Z,101290.41
2019-04-25T05:59:45.532Z,101283.69
2019-04-25T06:02:17.842Z,101279.30
2019-04-25T06:04:48.760Z,101272.73
2019-04-25T06:07:19.690Z,101275.88
2019-04-25T06:10:04.168Z,101278.74
2019-04-25T06:12:37.567Z,101278.49
2019-04-25T06:15:08.748Z,101267.30
2019-04-25T06:17:41.330Z,101265.88
2019-04-25T06:20:14.203Z,101268.68
2019-04-25T06:22:49.751Z,101282.59
2019-04-25T06:25:24.528Z,101284.55
2019-04-25T06:28:15.884Z,101286.05
2019-04-25T06:30:46.882Z,101277.45
2019-04-25T06:33:17.838Z,101278.47
2019-04-25T06:35:48.724Z,101274.56
2019-04-25T06:38:20.524Z,101271.59
2019-04-25T06:40:53.592Z,101275.53
2019-04-25T06:43:25.880Z,101278.91
2019-04-25T06:46:10.937Z,101280.81
2019-04-25T06:48:49.322Z,101291.23
2019-04-25T06:51:22.412Z,101295.94
2019-04-25T06:53:53.527Z,101296.47
2019-04-25T06:56:25.248Z,101294.87
2019-04-25T06:58:57.093Z,101285.43
2019-04-25T07:01:28.967Z,101292.32
2019-04-25T07:03:59.890Z,101296.72
2019-04-25T07:06:31.331Z,101294.94
2019-04-25T07:09:03.092Z,101284.94
2019-04-25T07:11:34.866Z,101292.07
2019-04-25T07:14:07.757Z,101296.16
2019-04-25T07:16:38.666Z,101298.61
2019-04-25T07:19:09.778Z,101293.90
2019-04-25T07:21:40.680Z,101295.19
2019-04-25T07:24:11.626Z,101287.37
2019-04-25T07:27:03.641Z,101294.20
2019-04-25T07:29:37.266Z,101293.27
2019-04-25T07:32:15.664Z,101281.80
2019-04-25T07:34:46.682Z,101275.30
2019-04-25T07:37:17.581Z,101285.70
2019-04-25T07:39:48.519Z,101279.93
2019-04-25T07:42:19.447Z,101279.09
2019-04-25T07:44:52.994Z,101283.10
2019-04-25T07:47:24.229Z,101284.92
2019-04-25T07:49:55.361Z,101276.36
2019-04-25T07:52:27.192Z,101267.28
2019-04-25T07:54:58.139Z,101270.67
2019-04-25T07:57:29.177Z,101277.59
2019-04-25T08:00:00.134Z,101269.45
2019-04-25T08:02:31.888Z,101268.49
2019-04-25T08:05:05.912Z,101268.19
2019-04-25T08:07:36.822Z,101272.22
2019-04-25T08:10:09.942Z,101269.83
2019-04-25T08:12:41.395Z,101265.14
2019-04-25T08:15:17.651Z,101255.20
2019-04-25T08:17:56.226Z,101262.42
2019-04-25T08:20:29.110Z,101263.73
2019-04-25T08:23:01.988Z,101264.60
2019-04-25T08:25:33.443Z,101274.48
2019-04-25T08:28:05.537Z,101269.57
2019-04-25T08:30:38.305Z,101272.02
2019-04-25T08:33:09.212Z,101276.47
2019-04-25T08:35:40.155Z,101263.27
2019-04-25T08:38:13.484Z,101254.67
2019-04-25T08:40:44.509Z,101266.96
2019-04-25T08:43:15.411Z,101263.13
2019-04-25T08:45:47.314Z,101267.92
2019-04-25T08:48:18.288Z,101265.01
2019-04-25T08:50:56.668Z,101269.57
2019-04-25T08:53:29.222Z,101267.56
2019-04-25T08:56:03.730Z,101266.78
2019-04-25T08:59:03.306Z,101271.51
2019-04-25T09:01:37.895Z,101264.47
2019-04-25T09:04:13.343Z,101266.94
2019-04-25T09:06:44.375Z,101268.10
2019-04-25T09:09:15.252Z,101265.62
2019-04-25T09:11:47.041Z,101266.31
2019-04-25T09:14:18.049Z,101266.15
2019-04-25T09:16:49.883Z,101265.31
2019-04-25T09:19:20.781Z,101268.56
2019-04-25T09:21:53.306Z,101269.90
2019-04-25T09:24:24.661Z,101281.37
2019-04-25T09:26:55.598Z,101280.52
2019-04-25T09:29:26.500Z,101278.80
2019-04-25T09:31:57.481Z,101282.48
2019-04-25T09:34:28.393Z,101280.63
2019-04-25T09:36:59.338Z,101284.64
2019-04-25T09:39:44.364Z,101277.90
2019-04-25T09:42:16.186Z,101283.00
2019-04-25T09:44:54.483Z,101280.98
2019-04-25T09:47:25.600Z,101274.58
2019-04-25T09:49:57.467Z,101270.54
2019-04-25T09:52:35.997Z,101273.42
2019-04-25T09:55:11.315Z,101275.66
2019-04-25T09:57:49.988Z,101273.95
2019-04-25T10:00:33.422Z,101271.09
2019-04-25T10:03:06.081Z,101270.06
2019-04-25T10:05:37.160Z,101270.53
2019-04-25T10:08:08.975Z,101270.88
2019-04-25T10:10:40.496Z,101267.87
2019-04-25T10:13:11.553Z,101259.73
2019-04-25T10:15:54.641Z,101261.22
2019-04-25T10:18:26.663Z,101262.71
2019-04-25T10:20:57.716Z,101265.78
2019-04-25T10:23:28.752Z,101261.18
2019-04-25T10:25:59.651Z,101249.59
2019-04-25T10:28:30.496Z,101256.00
2019-04-25T10:31:01.467Z,101243.51
2019-04-25T10:33:33.224Z,101250.55
2019-04-25T10:36:05.589Z,101240.12
2019-04-25T10:38:36.571Z,101245.55
2019-04-25T10:41:08.063Z,101251.28
2019-04-25T10:43:39.510Z,101255.64
2019-04-25T10:46:11.341Z,101249.56
2019-04-25T10:48:44.193Z,101242.48
2019-04-25T10:51:15.078Z,101246.86
2019-04-25T10:53:47.028Z,101247.64
2019-04-25T10:56:18.341Z,101243.08
2019-04-25T10:58:49.279Z,101247.43
2019-04-25T11:01:20.182Z,101238.51
2019-04-25T11:04:02.413Z,101242.47
2019-04-25T11:06:33.720Z,101241.45
2019-04-25T11:09:08.519Z,101240.76
2019-04-25T11:11:39.424Z,101241.75
2019-04-25T11:14:11.365Z,101241.77
2019-04-25T11:16:45.222Z,101238.38
2019-04-25T11:19:15.924Z,101248.47
2019-04-25T11:21:47.690Z,101240.33
2019-04-25T11:24:18.882Z,101246.05
2019-04-25T11:26:51.317Z,101233.26
2019-04-25T11:29:24.199Z,101226.27
2019-04-25T11:31:55.181Z,101227.58
2019-04-25T11:34:27.416Z,101236.73
2019-04-25T11:36:58.309Z,101225.62
2019-04-25T11:39:30.874Z,101228.61
2019-04-25T11:42:01.778Z,101224.88
2019-04-25T11:44:33.277Z,101224.16
2019-04-25T11:47:07.128Z,101222.75
2019-04-25T11:49:38.878Z,101213.92
2019-04-25T11:52:10.545Z,101223.85
2019-04-25T11:54:41.540Z,101225.81
2019-04-25T11:57:13.869Z,101226.47
2019-04-25T11:59:47.947Z,101226.11
2019-04-25T12:02:21.526Z,101228.87
2019-04-25T12:04:54.902Z,101231.62
2019-04-25T12:07:26.294Z,101216.17
2019-04-25T12:09:57.217Z,101209.81
2019-04-25T12:12:28.144Z,101215.39
2019-04-25T12:14:59.034Z,101212.45
2019-04-25T12:17:29.929Z,101226.53
2019-04-25T12:20:03.733Z,101214.35
2019-04-25T12:22:34.754Z,101224.01
2019-04-25T12:25:07.581Z,101236.06
2019-04-25T12:27:38.487Z,101242.45
2019-04-25T12:30:09.882Z,101225.22
2019-04-25T12:32:45.730Z,101246.66
2019-04-25T12:35:17.154Z,101248.53
2019-04-25T12:37:48.177Z,101250.30
2019-04-25T12:40:19.135Z,101247.14
2019-04-25T12:42:50.045Z,101254.69
2019-04-25T12:45:24.071Z,101256.72
2019-04-25T12:47:59.196Z,101257.72
2019-04-25T12:50:29.417Z,101255.00
2019-04-25T12:53:00.320Z,101250.17
2019-04-25T12:55:31.259Z,101256.14
2019-04-25T12:58:03.515Z,101251.23
2019-04-25T13:00:47.274Z,101249.89
2019-04-25T13:03:07.204Z,101246.34
2019-04-25T13:05:39.835Z,101253.27
2019-04-25T13:08:11.507Z,101248.90
2019-04-25T13:10:44.301Z,101251.17
2019-04-25T13:13:16.397Z,101249.22
2019-04-25T13:15:47.789Z,101251.56
2019-04-25T13:18:18.690Z,101254.61
2019-04-25T13:20:50.488Z,101252.91
2019-04-25T13:23:21.466Z,101251.56
2019-04-25T13:25:54.023Z,101256.67
2019-04-25T13:28:44.132Z,101249.25
2019-04-25T13:31:33.247Z,101252.12
2019-04-25T13:34:09.671Z,101249.89
2019-04-25T13:36:41.577Z,101254.94
2019-04-25T13:39:15.098Z,101253.09
2019-04-25T13:41:46.734Z,101253.87
2019-04-25T13:44:17.638Z,101254.17
2019-04-25T13:46:48.628Z,101255.64
2019-04-25T13:49:20.352Z,101256.69
2019-04-25T13:51:52.332Z,101255.88
2019-04-25T13:54:24.050Z,101253.81
2019-04-25T13:56:55.928Z,101265.09
2019-04-25T13:59:26.846Z,101260.07
2019-04-25T14:01:58.447Z,101257.00
2019-04-25T14:04:29.818Z,101254.50
2019-04-25T14:07:00.754Z,101248.86
2019-04-25T14:09:34.566Z,101248.86
2019-04-25T14:12:05.784Z,101255.03
2019-04-25T14:14:36.684Z,101253.50
2019-04-25T14:17:09.267Z,101260.56
2019-04-25T14:19:47.603Z,101254.84
2019-04-25T14:22:19.468Z,101261.55
2019-04-25T14:24:50.368Z,101253.20
2019-04-25T14:27:22.284Z,101257.37
2019-04-25T14:29:53.946Z,101257.44
2019-04-25T14:32:28.371Z,101256.45
2019-04-25T14:34:57.548Z,101249.58
2019-04-25T14:37:33.585Z,101248.55
2019-04-25T14:40:03.928Z,101256.77
2019-04-25T14:42:34.855Z,101248.73
2019-04-25T14:45:09.575Z,101252.09
2019-04-25T14:47:40.499Z,101257.06
2019-04-25T14:50:11.517Z,101254.09
2019-04-25T14:52:43.247Z,101249.03
2019-04-25T14:55:16.387Z,101252.06
2019-04-25T14:57:47.485Z,101254.65
2019-04-25T15:00:23.951Z,101251.31
2019-04-25T15:02:55.027Z,101258.42
2019-04-25T15:05:25.926Z,101247.34
2019-04-25T15:07:56.870Z,101251.44
2019-04-25T15:10:29.497Z,101249.09
2019-04-25T15:13:00.514Z,101252.47
2019-04-25T15:15:31.643Z,101251.13
2019-04-25T15:18:02.511Z,101249.77
2019-04-25T15:20:34.359Z,101251.80
2019-04-25T15:23:06.355Z,101254.50
2019-04-25T15:25:37.624Z,101258.91
2019-04-25T15:28:08.618Z,101253.86
2019-04-25T15:30:40.287Z,101257.85
2019-04-25T15:33:11.877Z,101254.81
2019-04-25T15:35:45.052Z,101248.25
2019-04-25T15:38:35.593Z,101252.11
2019-04-25T15:41:11.188Z,101253.46
2019-04-25T15:43:43.966Z,101248.42
2019-04-25T15:46:19.233Z,101258.35
2019-04-25T15:48:50.233Z,101254.79
2019-04-25T15:51:21.163Z,101255.47
2019-04-25T15:53:52.944Z,101249.58
2019-04-25T15:56:23.852Z,101263.28
2019-04-25T15:58:54.784Z,101256.18
2019-04-25T16:01:26.495Z,101257.63
2019-04-25T16:03:58.347Z,101258.09
2019-04-25T16:06:29.882Z,101261.09
2019-04-25T16:09:01.661Z,101253.69
2019-04-25T16:11:33.006Z,101255.70
2019-04-25T16:14:04.130Z,101256.97
2019-04-25T16:16:35.912Z,101265.88
2019-04-25T16:19:07.920Z,101250.78
2019-04-25T16:21:38.818Z,101260.09
2019-04-25T16:24:10.885Z,101250.31
2019-04-25T16:26:42.456Z,101261.58
2019-04-25T16:29:13.647Z,101264.52
2019-04-25T16:31:44.628Z,101264.73
2019-04-25T16:34:15.559Z,101263.74
2019-04-25T16:36:46.449Z,101267.06
2019-04-25T16:39:19.900Z,101266.91
2019-04-25T16:41:50.811Z,101260.60
2019-04-25T16:44:22.412Z,101261.19
2019-04-25T16:46:53.459Z,101258.84
2019-04-25T16:49:24.404Z,101262.19
2019-04-25T16:51:55.307Z,101261.16
2019-04-25T16:54:27.384Z,101269.50
2019-04-25T16:56:58.287Z,101268.75
2019-04-25T16:59:29.632Z,101267.59
2019-04-25T17:02:00.661Z,101266.55
2019-04-25T17:04:33.179Z,101260.84
2019-04-25T17:07:06.046Z,101272.91
2019-04-25T17:09:38.565Z,101271.89
2019-04-25T17:12:10.851Z,101276.95
2019-04-25T17:14:46.432Z,101273.23
2019-04-25T17:17:18.985Z,101271.50
2019-04-25T17:19:51.565Z,101274.55
2019-04-25T17:22:22.749Z,101275.41
2019-04-25T17:24:55.422Z,101277.53
2019-04-25T17:27:26.328Z,101276.84
2019-04-25T17:29:57.329Z,101279.01
2019-04-25T17:32:30.716Z,101284.48
2019-04-25T17:35:04.246Z,101281.39
2019-04-25T17:37:36.792Z,101288.66
2019-04-25T17:40:10.201Z,101290.95
2019-04-25T17:42:41.112Z,101286.55
2019-04-25T17:45:13.695Z,101295.51
2019-04-25T17:47:54.066Z,101300.53
2019-04-25T17:50:17.412Z,101305.69
2019-04-25T17:52:49.392Z,101306.45
2019-04-25T17:55:20.530Z,101309.14
2019-04-25T17:57:51.449Z,101301.25
2019-04-25T18:00:24.626Z,101305.66
2019-04-25T18:02:58.890Z,101305.33
2019-04-25T18:05:28.172Z,101304.23
2019-04-25T18:07:59.228Z,101310.25
2019-04-25T18:10:31.385Z,101312.27
2019-04-25T18:13:02.373Z,101323.52
2019-04-25T18:15:35.307Z,101324.65
2019-04-25T18:18:09.069Z,101324.27
2019-04-25T18:20:41.659Z,101330.70
2019-04-25T18:23:16.895Z,101324.63
2019-04-25T18:25:56.425Z,101333.95
2019-04-25T18:28:48.891Z,101341.93
2019-04-25T18:31:19.903Z,101337.10
2019-04-25T18:33:52.590Z,101340.59
2019-04-25T18:36:41.358Z,101339.63
2019-04-25T18:39:19.717Z,101340.60
2019-04-25T18:42:05.191Z,101345.03
2019-04-25T18:44:36.705Z,101349.69
2019-04-25T18:47:07.789Z,101348.91
2019-04-25T18:49:39.266Z,101344.92
2019-04-25T18:52:11.836Z,101341.08
2019-04-25T18:54:50.169Z,101340.64
2019-04-25T18:57:23.546Z,101343.23
2019-04-25T18:59:59.038Z,101337.80
2019-04-25T19:02:46.602Z,101339.77
2019-04-25T19:05:19.141Z,101347.81
2019-04-25T19:07:50.077Z,101353.42
2019-04-25T19:10:21.059Z,101354.39
2019-04-25T19:12:53.031Z,101355.02
2019-04-25T19:15:24.013Z,101350.77
2019-04-25T19:17:54.943Z,101351.26
2019-04-25T19:20:25.913Z,101352.11
2019-04-25T19:22:56.973Z,101352.03
2019-04-25T19:25:27.901Z,101356.96
2019-04-25T19:28:00.606Z,101361.66
2019-04-25T19:30:31.557Z,101357.67
2019-04-25T19:33:02.527Z,101349.64
2019-04-25T19:35:34.139Z,101354.73
2019-04-25T19:38:05.068Z,101350.58
2019-04-25T19:40:41.146Z,101354.34
2019-04-25T19:43:15.651Z,101356.53
2019-04-25T19:45:52.649Z,101355.08
2019-04-25T19:48:28.533Z,101357.23
2019-04-25T19:50:59.435Z,101360.66
2019-04-25T19:53:31.188Z,101357.00
2019-04-25T19:56:02.084Z,101359.05
2019-04-25T19:58:33.065Z,101355.37
2019-04-25T20:01:04.055Z,101354.78
2019-04-25T20:03:52.243Z,101356.72
2019-04-25T20:06:19.877Z,101348.84
2019-04-25T20:08:53.245Z,101351.69
2019-04-25T20:11:42.705Z,101353.47
2019-04-25T20:14:15.462Z,101353.48
2019-04-25T20:16:48.066Z,101352.73
2019-04-25T20:19:19.076Z,101355.28
2019-04-25T20:21:50.067Z,101361.91
2019-04-25T20:24:20.994Z,101361.20
2019-04-25T20:26:52.594Z,101351.84
2019-04-25T20:29:23.864Z,101358.18
2019-04-25T20:31:54.904Z,101351.36
2019-04-25T20:34:25.779Z,101349.66
2019-04-25T20:36:56.751Z,101355.51
2019-04-25T20:39:27.924Z,101352.01
2019-04-25T20:41:58.867Z,101360.02
2019-04-25T20:44:30.015Z,101351.75
2019-04-25T20:47:00.999Z,101350.33
2019-04-25T20:49:31.924Z,101350.44
2019-04-25T20:52:02.828Z,101354.55
2019-04-25T20:54:33.755Z,101352.88
2019-04-25T20:57:04.663Z,101353.11
2019-04-25T20:59:35.704Z,101348.86
2019-04-25T21:02:07.784Z,101347.17
2019-04-25T21:04:42.325Z,101348.74
2019-04-25T21:07:13.232Z,101349.57
2019-04-25T21:09:44.180Z,101348.36
2019-04-25T21:12:15.083Z,101346.80
2019-04-25T21:14:49.241Z,101354.18
2019-04-25T21:17:25.854Z,101348.13
2019-04-25T21:19:58.528Z,101342.19
2019-04-25T21:22:29.499Z,101350.44
2019-04-25T21:25:00.423Z,101350.91
2019-04-25T21:27:31.321Z,101343.03
2019-04-25T21:30:02.664Z,101341.69
2019-04-25T21:32:45.420Z,101348.02
2019-04-25T21:35:16.610Z,101345.34
2019-04-25T21:37:47.526Z,101349.11
2019-04-25T21:40:20.346Z,101346.53
2019-04-25T21:42:59.050Z,101352.14
2019-04-25T21:45:31.021Z,101348.23
2019-04-25T21:48:03.032Z,101344.55
2019-04-25T21:50:40.713Z,101353.17
2019-04-25T21:53:11.887Z,101352.92
2019-04-25T21:55:44.063Z,101349.75
2019-04-25T21:58:15.260Z,101355.83
2019-04-25T22:00:58.457Z,101354.34
2019-04-25T22:03:29.417Z,101348.87
2019-04-25T22:06:00.826Z,101346.81
2019-04-25T22:08:31.732Z,101345.97
2019-04-25T22:11:03.328Z,101347.53
2019-04-25T22:13:34.450Z,101349.31
2019-04-25T22:16:05.958Z,101347.84
2019-04-25T22:18:38.135Z,101352.08
2019-04-25T22:24:06.107Z,101352.30
2019-04-25T22:26:30.283Z,101347.44
2019-04-25T22:29:01.612Z,101356.13
2019-04-25T22:31:37.349Z,101353.34
2019-04-25T22:34:12.692Z,101345.20
2019-04-25T22:36:44.011Z,101338.98
2019-04-25T22:39:15.040Z,101335.45
2019-04-25T22:41:48.202Z,101343.67
2019-04-25T22:44:20.656Z,101340.02
2019-04-25T22:46:52.338Z,101334.08
2019-04-25T22:49:23.257Z,101344.57
2019-04-25T22:51:54.190Z,101350.94
2019-04-25T22:54:26.462Z,101342.94
2019-04-25T22:56:57.408Z,101338.03
2019-04-25T22:59:28.496Z,101345.16
2019-04-25T23:02:02.406Z,101347.30
2019-04-25T23:04:45.207Z,101346.66
2019-04-25T23:07:17.211Z,101343.77
2019-04-25T23:09:50.068Z,101346.84
2019-04-25T23:12:21.489Z,101343.31
2019-04-25T23:14:52.399Z,101347.90
2019-04-25T23:17:23.441Z,101345.92
2019-04-25T23:19:54.625Z,101343.97
2019-04-25T23:22:25.550Z,101345.39
2019-04-25T23:24:58.366Z,101345.39
2019-04-25T23:27:30.945Z,101343.97
2019-04-25T23:30:01.841Z,101345.77
2019-04-25T23:32:32.970Z,101344.53
2019-04-25T23:35:05.708Z,101334.00
2019-04-25T23:37:36.795Z,101337.94
2019-04-25T23:40:07.756Z,101345.92
2019-04-25T23:42:38.746Z,101334.54
2019-04-25T23:45:10.361Z,101340.46
2019-04-25T23:47:41.466Z,101336.32
2019-04-25T23:50:12.766Z,101333.27
2019-04-25T23:52:43.688Z,101332.45
2019-04-25T23:55:15.175Z,101336.53
2019-04-25T23:57:46.202Z,101338.45
